createdAt,value
2023-03-17T00:00:55.810Z,20.57
2023-03-17T00:03:45.587Z,20.56
2023-03-17T00:06:33.819Z,20.56
2023-03-17T00:09:20.289Z,20.56
2023-03-17T00:12:10.842Z,20.58
2023-03-17T00:14:56.322Z,20.59
2023-03-17T00:17:42.409Z,20.60
2023-03-17T00:20:33.084Z,20.58
2023-03-17T00:23:21.616Z,20.59
2023-03-17T00:26:07.340Z,20.58
2023-03-17T00:28:54.780Z,20.56
2023-03-17T00:31:40.307Z,20.57
2023-03-17T00:34:25.788Z,20.55
2023-03-17T00:37:12.835Z,20.55
2023-03-17T00:39:58.385Z,20.55
2023-03-17T00:42:44.194Z,20.54
2023-03-17T00:45:29.548Z,20.54
2023-03-17T00:48:19.714Z,20.54
2023-03-17T00:51:05.328Z,20.53
2023-03-17T00:53:50.754Z,20.52
2023-03-17T00:56:37.469Z,20.52
2023-03-17T00:59:33.910Z,20.50
2023-03-17T01:02:19.564Z,20.51
2023-03-17T01:05:07.150Z,20.50
2023-03-17T01:07:55.069Z,20.50
2023-03-17T01:10:40.174Z,20.50
2023-03-17T01:13:25.557Z,20.49
2023-03-17T01:16:12.418Z,20.50
2023-03-17T01:18:58.494Z,20.50
2023-03-17T01:21:43.913Z,20.51
2023-03-17T01:24:29.213Z,20.52
2023-03-17T01:27:14.344Z,20.52
2023-03-17T01:30:00.267Z,20.51
2023-03-17T01:32:45.802Z,20.51
2023-03-17T01:35:31.551Z,20.51
2023-03-17T01:38:17.545Z,20.50
2023-03-17T01:41:03.519Z,20.49
2023-03-17T01:43:49.876Z,20.49
2023-03-17T01:46:36.648Z,20.49
2023-03-17T01:49:30.864Z,20.49
2023-03-17T01:52:20.760Z,20.48
2023-03-17T01:55:12.146Z,20.47
2023-03-17T01:57:57.691Z,20.47
2023-03-17T02:00:43.990Z,20.46
2023-03-17T02:03:29.861Z,20.46
2023-03-17T02:06:15.227Z,20.46
2023-03-17T02:09:01.586Z,20.44
2023-03-17T02:11:46.841Z,20.44
2023-03-17T02:14:32.134Z,20.43
2023-03-17T02:17:22.957Z,20.45
2023-03-17T02:20:17.557Z,20.43
2023-03-17T02:23:04.317Z,20.44
2023-03-17T02:25:53.659Z,20.45
2023-03-17T02:28:39.644Z,20.45
2023-03-17T02:31:26.792Z,20.45
2023-03-17T02:34:12.440Z,20.46
2023-03-17T02:36:58.601Z,20.46
2023-03-17T02:39:44.815Z,20.47
2023-03-17T02:42:30.013Z,20.45
2023-03-17T02:45:18.036Z,20.45
2023-03-17T02:48:05.437Z,20.46
2023-03-17T02:50:50.832Z,20.47
2023-03-17T02:53:36.656Z,20.45
2023-03-17T02:56:21.939Z,20.45
2023-03-17T02:59:07.522Z,20.44
2023-03-17T03:01:53.336Z,20.44
2023-03-17T03:04:38.936Z,20.44
2023-03-17T03:07:24.196Z,20.44
2023-03-17T03:10:10.470Z,20.43
2023-03-17T03:12:55.962Z,20.43
2023-03-17T03:15:43.312Z,20.42
2023-03-17T03:18:28.896Z,20.42
2023-03-17T03:21:14.359Z,20.40
2023-03-17T03:23:59.877Z,20.40
2023-03-17T03:26:45.030Z,20.41
2023-03-17T03:29:30.704Z,20.41
2023-03-17T03:32:16.320Z,20.39
2023-03-17T03:35:01.869Z,20.40
2023-03-17T03:37:47.230Z,20.41
2023-03-17T03:40:32.838Z,20.41
2023-03-17T03:43:23.415Z,20.42
2023-03-17T03:46:09.221Z,20.42
2023-03-17T03:48:55.220Z,20.43
2023-03-17T03:51:40.885Z,20.44
2023-03-17T03:54:26.183Z,20.44
2023-03-17T03:57:11.592Z,20.44
2023-03-17T03:59:57.295Z,20.44
2023-03-17T04:02:45.025Z,20.45
2023-03-17T04:05:30.415Z,20.43
2023-03-17T04:08:16.470Z,20.44
2023-03-17T04:11:01.904Z,20.44
2023-03-17T04:13:47.121Z,20.43
2023-03-17T04:16:33.057Z,20.43
2023-03-17T04:19:18.275Z,20.43
2023-03-17T04:22:04.571Z,20.43
2023-03-17T04:24:49.891Z,20.43
2023-03-17T04:27:35.199Z,20.43
2023-03-17T04:30:20.654Z,20.43
2023-03-17T04:33:06.037Z,20.42
2023-03-17T04:35:51.313Z,20.42
2023-03-17T04:38:36.509Z,20.43
2023-03-17T04:41:21.949Z,20.41
2023-03-17T04:44:08.127Z,20.43
2023-03-17T04:46:53.613Z,20.43
2023-03-17T04:49:39.090Z,20.45
2023-03-17T04:52:24.344Z,20.52
2023-03-17T04:55:10.105Z,20.59
2023-03-17T04:57:55.390Z,20.66
2023-03-17T05:00:41.155Z,20.70
2023-03-17T05:03:28.546Z,20.75
2023-03-17T05:06:14.298Z,20.79
2023-03-17T05:09:01.703Z,20.83
2023-03-17T05:11:47.683Z,20.83
2023-03-17T05:14:33.171Z,20.83
2023-03-17T05:17:18.700Z,20.86
2023-03-17T05:20:04.672Z,20.87
2023-03-17T05:22:50.156Z,20.90
2023-03-17T05:25:36.888Z,20.92
2023-03-17T05:28:24.120Z,20.96
2023-03-17T05:31:11.037Z,21.01
2023-03-17T05:33:56.897Z,21.03
2023-03-17T05:36:43.735Z,21.06
2023-03-17T05:39:29.574Z,21.12
2023-03-17T05:42:15.631Z,21.12
2023-03-17T05:45:00.970Z,21.11
2023-03-17T05:47:46.547Z,21.13
2023-03-17T05:50:32.616Z,21.16
2023-03-17T05:53:18.861Z,21.18
2023-03-17T05:56:05.389Z,21.17
2023-03-17T05:58:50.572Z,21.22
2023-03-17T06:01:36.635Z,21.28
2023-03-17T06:04:21.992Z,21.35
2023-03-17T06:07:07.462Z,21.37
2023-03-17T06:09:53.097Z,21.41
2023-03-17T06:12:38.204Z,21.38
2023-03-17T06:15:23.587Z,21.38
2023-03-17T06:18:09.025Z,21.32
2023-03-17T06:20:55.173Z,21.27
2023-03-17T06:23:40.999Z,21.25
2023-03-17T06:26:27.242Z,21.20
2023-03-17T06:29:12.644Z,21.17
2023-03-17T06:32:01.466Z,21.13
2023-03-17T06:34:51.854Z,21.08
2023-03-17T06:37:37.282Z,21.06
2023-03-17T06:40:22.815Z,21.00
2023-03-17T06:43:08.043Z,21.03
2023-03-17T06:45:53.382Z,21.02
2023-03-17T06:48:39.200Z,21.01
2023-03-17T06:51:25.078Z,21.00
2023-03-17T06:54:10.332Z,20.97
2023-03-17T06:56:56.033Z,20.94
2023-03-17T06:59:41.757Z,20.94
2023-03-17T07:02:27.430Z,20.93
2023-03-17T07:05:13.988Z,20.91
2023-03-17T07:07:59.695Z,20.92
2023-03-17T07:10:45.858Z,20.91
2023-03-17T07:13:35.523Z,20.93
2023-03-17T07:16:21.264Z,20.94
2023-03-17T07:19:07.405Z,20.92
2023-03-17T07:21:53.085Z,20.93
2023-03-17T07:24:38.521Z,20.93
2023-03-17T07:27:25.426Z,20.92
2023-03-17T07:30:12.909Z,20.93
2023-03-17T07:32:58.607Z,20.93
2023-03-17T07:35:48.657Z,20.92
2023-03-17T07:38:34.181Z,20.90
2023-03-17T07:41:19.932Z,20.88
2023-03-17T07:44:05.309Z,20.87
2023-03-17T07:46:51.503Z,20.87
2023-03-17T07:49:41.702Z,20.85
2023-03-17T07:52:27.336Z,20.85
2023-03-17T07:55:12.671Z,20.83
2023-03-17T07:57:58.240Z,20.84
2023-03-17T08:00:43.596Z,20.84
2023-03-17T08:03:30.603Z,20.84
2023-03-17T08:06:16.083Z,20.83
2023-03-17T08:09:01.633Z,20.83
2023-03-17T08:11:46.880Z,20.82
2023-03-17T08:14:32.179Z,20.81
2023-03-17T08:17:17.702Z,20.82
2023-03-17T08:20:04.872Z,20.80
2023-03-17T08:22:50.371Z,20.79
2023-03-17T08:25:35.491Z,20.80
2023-03-17T08:28:21.080Z,20.79
2023-03-17T08:31:17.099Z,20.80
2023-03-17T08:34:03.167Z,20.83
2023-03-17T08:36:48.329Z,20.82
2023-03-17T08:39:33.854Z,20.82
2023-03-17T08:42:19.055Z,20.83
2023-03-17T08:45:07.441Z,20.83
2023-03-17T08:47:53.434Z,20.83
2023-03-17T08:50:38.973Z,20.85
2023-03-17T08:53:25.119Z,20.85
2023-03-17T08:56:10.969Z,20.84
2023-03-17T08:58:57.052Z,20.84
2023-03-17T09:01:44.241Z,20.83
2023-03-17T09:04:29.384Z,20.81
2023-03-17T09:07:15.170Z,20.82
2023-03-17T09:10:00.749Z,20.83
2023-03-17T09:12:46.235Z,20.82
2023-03-17T09:15:33.778Z,20.82
2023-03-17T09:18:21.933Z,20.81
2023-03-17T09:21:08.806Z,20.82
2023-03-17T09:23:54.424Z,20.82
2023-03-17T09:26:39.890Z,20.83
2023-03-17T09:29:25.088Z,20.82
2023-03-17T09:32:10.419Z,20.81
2023-03-17T09:34:56.258Z,20.82
2023-03-17T09:37:41.909Z,20.83
2023-03-17T09:40:33.243Z,20.83
2023-03-17T09:43:21.647Z,20.83
2023-03-17T09:46:36.404Z,20.85
2023-03-17T09:49:27.530Z,20.86
2023-03-17T09:52:16.027Z,20.88
2023-03-17T09:55:05.229Z,20.86
2023-03-17T09:57:52.239Z,20.87
2023-03-17T10:00:37.734Z,20.88
2023-03-17T10:03:26.192Z,20.87
2023-03-17T10:06:22.646Z,20.90
2023-03-17T10:09:37.417Z,20.90
2023-03-17T10:12:34.357Z,20.91
2023-03-17T10:15:38.424Z,20.91
2023-03-17T10:18:29.748Z,20.93
2023-03-17T10:21:20.384Z,20.93
2023-03-17T10:24:07.444Z,20.94
2023-03-17T10:26:57.899Z,20.95
2023-03-17T10:29:43.353Z,20.95
2023-03-17T10:32:32.030Z,20.94
2023-03-17T10:35:18.638Z,20.94
2023-03-17T10:38:19.335Z,20.94
2023-03-17T10:41:13.519Z,20.95
2023-03-17T10:43:59.500Z,20.95
2023-03-17T10:46:54.271Z,20.95
2023-03-17T10:49:39.743Z,20.96
2023-03-17T10:52:28.649Z,20.96
2023-03-17T10:55:18.163Z,20.97
2023-03-17T10:58:17.074Z,20.97
2023-03-17T11:01:39.688Z,20.97
2023-03-17T11:04:51.043Z,20.99
2023-03-17T11:07:38.706Z,21.00
2023-03-17T11:10:27.338Z,20.99
2023-03-17T11:13:18.578Z,20.99
2023-03-17T11:16:22.069Z,21.01
2023-03-17T11:19:15.424Z,21.02
2023-03-17T11:22:19.728Z,21.04
2023-03-17T11:25:16.230Z,21.04
2023-03-17T11:28:18.909Z,21.04
2023-03-17T11:31:24.536Z,21.06
2023-03-17T11:34:25.741Z,21.07
2023-03-17T11:37:51.441Z,21.06
2023-03-17T11:40:59.262Z,21.07
2023-03-17T11:43:56.591Z,21.08
2023-03-17T11:47:20.482Z,21.06
2023-03-17T11:50:12.229Z,21.06
2023-03-17T11:53:19.593Z,21.06
2023-03-17T11:56:16.960Z,21.06
2023-03-17T11:59:06.637Z,21.07
2023-03-17T12:02:01.520Z,21.06
2023-03-17T12:04:55.705Z,21.07
2023-03-17T12:07:47.806Z,21.08
2023-03-17T12:10:51.717Z,21.07
2023-03-17T12:14:17.604Z,21.07
2023-03-17T12:17:16.183Z,21.06
2023-03-17T12:20:20.017Z,21.06
2023-03-17T12:23:16.153Z,21.04
2023-03-17T12:26:37.775Z,21.06
2023-03-17T12:29:30.375Z,21.07
2023-03-17T12:32:41.817Z,21.09
2023-03-17T12:35:27.860Z,21.10
2023-03-17T12:38:24.542Z,21.09
2023-03-17T12:42:12.003Z,21.11
2023-03-17T12:45:15.774Z,21.09
2023-03-17T12:48:10.074Z,21.09
2023-03-17T12:51:37.246Z,21.09
2023-03-17T12:54:32.037Z,21.10
2023-03-17T12:57:20.693Z,21.11
2023-03-17T13:00:29.669Z,21.12
2023-03-17T13:03:25.244Z,21.10
2023-03-17T13:06:19.393Z,21.10
2023-03-17T13:09:32.688Z,21.09
2023-03-17T13:12:39.318Z,21.08
2023-03-17T13:15:34.044Z,21.08
2023-03-17T13:18:19.185Z,21.07
2023-03-17T13:21:04.907Z,21.07
2023-03-17T13:23:59.269Z,21.07
2023-03-17T13:26:50.467Z,21.06
2023-03-17T13:29:35.796Z,21.06
2023-03-17T13:32:24.678Z,21.06
2023-03-17T13:35:19.086Z,21.04
2023-03-17T13:38:32.853Z,21.04
2023-03-17T13:41:32.021Z,21.03
2023-03-17T13:44:47.669Z,21.01
2023-03-17T13:47:36.089Z,21.02
2023-03-17T13:50:31.236Z,21.02
2023-03-17T13:53:17.100Z,21.03
2023-03-17T13:56:12.190Z,21.02
2023-03-17T13:59:06.572Z,21.01
2023-03-17T14:02:04.557Z,21.05
2023-03-17T14:04:57.510Z,21.06
2023-03-17T14:07:56.707Z,21.07
2023-03-17T14:10:45.933Z,21.10
2023-03-17T14:13:49.648Z,21.15
2023-03-17T14:16:42.462Z,21.15
2023-03-17T14:19:29.609Z,21.16
2023-03-17T14:22:24.608Z,21.18
2023-03-17T14:25:22.251Z,21.21
2023-03-17T14:28:12.729Z,21.21
2023-03-17T14:31:06.753Z,21.27
2023-03-17T14:33:55.678Z,21.31
2023-03-17T14:36:41.146Z,21.35
2023-03-17T14:39:26.949Z,21.39
2023-03-17T14:42:12.369Z,21.42
2023-03-17T14:45:08.213Z,21.43
2023-03-17T14:47:53.947Z,21.44
2023-03-17T14:50:52.150Z,21.48
2023-03-17T14:53:43.449Z,21.51
2023-03-17T14:56:52.213Z,21.56
2023-03-17T14:59:40.598Z,21.59
2023-03-17T15:02:35.049Z,21.59
2023-03-17T15:05:31.658Z,21.63
2023-03-17T15:08:35.037Z,21.67
2023-03-17T15:11:27.635Z,21.64
2023-03-17T15:14:21.651Z,21.63
2023-03-17T15:17:17.017Z,21.70
2023-03-17T15:20:13.693Z,21.68
2023-03-17T15:23:03.977Z,21.73
2023-03-17T15:25:55.789Z,21.77
2023-03-17T15:28:41.348Z,21.80
2023-03-17T15:31:30.156Z,21.82
2023-03-17T15:34:15.686Z,21.86
2023-03-17T15:37:00.977Z,21.84
2023-03-17T15:39:48.143Z,21.90
2023-03-17T15:42:37.145Z,21.92
2023-03-17T15:45:22.253Z,21.90
2023-03-17T15:48:17.421Z,21.91
2023-03-17T15:51:04.561Z,21.93
2023-03-17T15:53:50.417Z,21.96
2023-03-17T15:56:35.726Z,21.96
2023-03-17T15:59:20.794Z,21.97
2023-03-17T16:02:31.737Z,21.95
2023-03-17T16:05:20.678Z,21.95
2023-03-17T16:08:05.947Z,21.95
2023-03-17T16:10:52.257Z,21.97
2023-03-17T16:13:37.503Z,21.97
2023-03-17T16:16:45.650Z,21.96
2023-03-17T16:19:31.596Z,21.95
2023-03-17T16:22:41.870Z,21.94
2023-03-17T16:25:29.643Z,21.93
2023-03-17T16:28:16.372Z,21.95
2023-03-17T16:31:02.147Z,21.93
2023-03-17T16:33:48.622Z,21.91
2023-03-17T16:36:33.902Z,21.90
2023-03-17T16:39:23.032Z,21.90
2023-03-17T16:42:28.252Z,21.88
2023-03-17T16:45:27.054Z,21.90
2023-03-17T16:48:14.711Z,21.89
2023-03-17T16:51:01.086Z,21.87
2023-03-17T16:53:47.115Z,21.80
2023-03-17T16:56:32.705Z,21.77
2023-03-17T16:59:21.804Z,21.73
2023-03-17T17:02:15.891Z,21.70
2023-03-17T17:05:04.613Z,21.69
2023-03-17T17:07:50.807Z,21.70
2023-03-17T17:10:36.984Z,21.68
2023-03-17T17:13:22.259Z,21.67
2023-03-17T17:16:11.799Z,21.65
2023-03-17T17:18:59.023Z,21.59
2023-03-17T17:21:45.012Z,21.56
2023-03-17T17:24:31.156Z,21.50
2023-03-17T17:27:16.548Z,21.41
2023-03-17T17:30:01.891Z,21.32
2023-03-17T17:32:47.207Z,21.28
2023-03-17T17:35:33.353Z,21.26
2023-03-17T17:38:27.650Z,21.25
2023-03-17T17:41:14.167Z,21.26
2023-03-17T17:43:59.363Z,21.25
2023-03-17T17:46:44.826Z,21.23
2023-03-17T17:49:30.318Z,21.21
2023-03-17T17:53:12.800Z,21.19
2023-03-17T17:55:59.080Z,21.20
2023-03-17T17:58:44.933Z,21.16
2023-03-17T18:01:30.576Z,21.14
2023-03-17T18:04:16.425Z,21.13
2023-03-17T18:07:02.560Z,21.10
2023-03-17T18:09:48.064Z,21.08
2023-03-17T18:12:33.490Z,21.07
2023-03-17T18:15:18.990Z,21.06
2023-03-17T18:18:05.413Z,21.04
2023-03-17T18:20:51.073Z,21.07
2023-03-17T18:23:36.733Z,21.11
2023-03-17T18:26:29.327Z,21.13
2023-03-17T18:29:14.577Z,21.16
2023-03-17T18:31:59.940Z,21.20
2023-03-17T18:34:46.672Z,21.23
2023-03-17T18:37:32.628Z,21.27
2023-03-17T18:40:32.327Z,21.33
2023-03-17T18:43:19.258Z,21.37
2023-03-17T18:46:05.774Z,21.40
2023-03-17T18:48:59.770Z,21.43
2023-03-17T18:51:46.329Z,21.45
2023-03-17T18:54:32.911Z,21.47
2023-03-17T18:57:19.128Z,21.47
2023-03-17T19:00:06.432Z,21.48
2023-03-17T19:02:54.496Z,21.51
2023-03-17T19:05:41.055Z,21.52
2023-03-17T19:08:26.740Z,21.53
2023-03-17T19:11:14.422Z,21.57
2023-03-17T19:14:00.668Z,21.59
2023-03-17T19:16:47.532Z,21.64
2023-03-17T19:19:35.707Z,21.66
2023-03-17T19:22:21.695Z,21.68
2023-03-17T19:25:08.794Z,21.66
2023-03-17T19:27:54.352Z,21.64
2023-03-17T19:30:40.020Z,21.62
2023-03-17T19:33:25.704Z,21.63
2023-03-17T19:36:13.745Z,21.60
2023-03-17T19:38:59.555Z,21.59
2023-03-17T19:41:48.094Z,21.53
2023-03-17T19:44:33.912Z,21.51
2023-03-17T19:47:21.468Z,21.51
2023-03-17T19:50:13.578Z,21.48
2023-03-17T19:53:02.272Z,21.44
2023-03-17T19:55:48.617Z,21.42
2023-03-17T19:58:38.001Z,21.40
2023-03-17T20:01:25.000Z,21.36
2023-03-17T20:04:17.708Z,21.31
2023-03-17T20:07:05.151Z,21.27
2023-03-17T20:09:53.587Z,21.24
2023-03-17T20:12:40.583Z,21.25
2023-03-17T20:15:29.353Z,21.27
2023-03-17T20:18:15.225Z,21.25
2023-03-17T20:21:05.759Z,21.23
2023-03-17T20:23:52.959Z,21.18
2023-03-17T20:26:41.849Z,21.15
2023-03-17T20:29:29.261Z,21.13
2023-03-17T20:32:17.353Z,21.11
2023-03-17T20:35:03.446Z,21.06
2023-03-17T20:37:51.019Z,21.03
2023-03-17T20:40:37.613Z,21.02
2023-03-17T20:43:23.495Z,21.01
2023-03-17T20:46:16.036Z,20.98
2023-03-17T20:49:07.078Z,20.95
2023-03-17T20:51:53.489Z,20.97
2023-03-17T20:54:39.152Z,21.02
2023-03-17T20:57:24.520Z,21.06
2023-03-17T21:00:17.999Z,21.08
2023-03-17T21:03:04.611Z,21.14
2023-03-17T21:05:50.442Z,21.17
2023-03-17T21:08:36.671Z,21.19
2023-03-17T21:11:26.629Z,21.23
2023-03-17T21:14:13.750Z,21.27
2023-03-17T21:16:59.255Z,21.31
2023-03-17T21:19:45.565Z,21.34
2023-03-17T21:22:32.261Z,21.32
2023-03-17T21:25:17.800Z,21.33
2023-03-17T21:28:05.092Z,21.38
2023-03-17T21:30:50.362Z,21.42
2023-03-17T21:33:35.544Z,21.45
2023-03-17T21:36:21.209Z,21.50
2023-03-17T21:39:06.561Z,21.53
2023-03-17T21:41:52.542Z,21.55
2023-03-17T21:44:38.418Z,21.60
2023-03-17T21:47:23.802Z,21.61
2023-03-17T21:50:10.221Z,21.63
2023-03-17T21:52:55.520Z,21.67
2023-03-17T21:55:41.413Z,21.67
2023-03-17T21:58:26.612Z,21.68
2023-03-17T22:01:12.168Z,21.68
2023-03-17T22:03:57.749Z,21.67
2023-03-17T22:06:43.342Z,21.66
2023-03-17T22:09:29.210Z,21.64
2023-03-17T22:12:14.728Z,21.61
2023-03-17T22:15:00.104Z,21.57
2023-03-17T22:17:45.629Z,21.51
2023-03-17T22:20:31.606Z,21.47
2023-03-17T22:23:17.029Z,21.40
2023-03-17T22:26:02.455Z,21.34
2023-03-17T22:28:49.155Z,21.30
2023-03-17T22:31:35.466Z,21.27
2023-03-17T22:34:20.658Z,21.27
2023-03-17T22:37:06.908Z,21.24
2023-03-17T22:39:52.268Z,21.21
2023-03-17T22:42:37.888Z,21.21
2023-03-17T22:45:23.745Z,21.20
2023-03-17T22:48:09.209Z,21.11
2023-03-17T22:50:54.566Z,21.06
2023-03-17T22:53:40.557Z,21.06
2023-03-17T22:56:26.861Z,21.04
2023-03-17T22:59:12.259Z,21.03
2023-03-17T23:01:57.723Z,21.06
2023-03-17T23:04:42.932Z,21.06
2023-03-17T23:07:35.636Z,21.06
2023-03-17T23:10:26.854Z,21.02
2023-03-17T23:13:12.663Z,20.99
2023-03-17T23:15:58.362Z,21.00
2023-03-17T23:18:46.652Z,21.00
2023-03-17T23:21:35.357Z,20.98
2023-03-17T23:24:21.040Z,20.95
2023-03-17T23:27:06.709Z,20.92
2023-03-17T23:29:53.110Z,20.93
2023-03-17T23:32:40.593Z,20.92
2023-03-17T23:35:26.082Z,20.94
2023-03-17T23:38:11.327Z,20.94
2023-03-17T23:40:57.548Z,20.93
2023-03-17T23:43:43.991Z,20.91
2023-03-17T23:46:29.154Z,20.88
2023-03-17T23:49:14.209Z,20.88
2023-03-17T23:51:59.538Z,20.88
2023-03-17T23:54:45.514Z,20.85
2023-03-17T23:57:33.661Z,20.83
